sensor_id;sensor_type;location;lat;lon;timestamp;P1;durP1;ratioP1;P2;durP2;ratioP2
21677;SDS011;11000;50.360;7.582;2022-11-25T00:00:44;11.87;;;3.70;;
21677;SDS011;11000;50.360;7.582;2022-11-25T00:03:04;14.83;;;3.80;;
21677;SDS011;11000;50.360;7.582;2022-11-25T00:05:25;8.63;;;3.33;;
21677;SDS011;11000;50.360;7.582;2022-11-25T00:07:47;11.80;;;3.73;;
21677;SDS011;11000;50.360;7.582;2022-11-25T00:10:07;12.57;;;3.70;;
21677;SDS011;11000;50.360;7.582;2022-11-25T00:12:28;13.47;;;3.83;;
21677;SDS011;11000;50.360;7.582;2022-11-25T00:14:49;11.37;;;3.67;;
21677;SDS011;11000;50.360;7.582;2022-11-25T00:17:09;15.17;;;3.93;;
21677;SDS011;11000;50.360;7.582;2022-11-25T00:19:30;12.47;;;4.17;;
21677;SDS011;11000;50.360;7.582;2022-11-25T00:21:50;15.07;;;4.27;;
21677;SDS011;11000;50.360;7.582;2022-11-25T00:24:11;16.20;;;4.33;;
21677;SDS011;11000;50.360;7.582;2022-11-25T00:26:34;20.43;;;4.70;;
21677;SDS011;11000;50.360;7.582;2022-11-25T00:28:56;22.57;;;4.43;;
21677;SDS011;11000;50.360;7.582;2022-11-25T00:31:19;14.57;;;4.50;;
21677;SDS011;11000;50.360;7.582;2022-11-25T00:33:41;13.27;;;4.73;;
21677;SDS011;11000;50.360;7.582;2022-11-25T00:36:03;11.20;;;4.30;;
21677;SDS011;11000;50.360;7.582;2022-11-25T00:38:25;16.50;;;4.27;;
21677;SDS011;11000;50.360;7.582;2022-11-25T00:40:45;13.87;;;4.30;;
21677;SDS011;11000;50.360;7.582;2022-11-25T00:43:26;7.77;;;3.03;;
21677;SDS011;11000;50.360;7.582;2022-11-25T00:46:04;14.70;;;4.10;;
21677;SDS011;11000;50.360;7.582;2022-11-25T00:48:25;17.73;;;4.03;;
21677;SDS011;11000;50.360;7.582;2022-11-25T00:50:45;13.67;;;4.17;;
21677;SDS011;11000;50.360;7.582;2022-11-25T00:53:06;13.60;;;4.47;;
21677;SDS011;11000;50.360;7.582;2022-11-25T00:55:26;11.87;;;3.63;;
21677;SDS011;11000;50.360;7.582;2022-11-25T00:58:07;10.40;;;4.30;;
21677;SDS011;11000;50.360;7.582;2022-11-25T01:00:27;14.37;;;4.00;;
21677;SDS011;11000;50.360;7.582;2022-11-25T01:02:48;9.13;;;3.77;;
21677;SDS011;11000;50.360;7.582;2022-11-25T01:05:08;14.37;;;4.80;;
21677;SDS011;11000;50.360;7.582;2022-11-25T01:07:29;13.63;;;4.17;;
21677;SDS011;11000;50.360;7.582;2022-11-25T01:09:49;16.03;;;3.90;;
21677;SDS011;11000;50.360;7.582;2022-11-25T01:12:10;11.70;;;4.00;;
21677;SDS011;11000;50.360;7.582;2022-11-25T01:14:30;14.43;;;4.50;;
21677;SDS011;11000;50.360;7.582;2022-11-25T01:16:51;12.07;;;4.37;;
21677;SDS011;11000;50.360;7.582;2022-11-25T01:19:12;16.27;;;4.57;;
21677;SDS011;11000;50.360;7.582;2022-11-25T01:21:33;11.20;;;3.97;;
21677;SDS011;11000;50.360;7.582;2022-11-25T01:23:54;13.83;;;4.20;;
21677;SDS011;11000;50.360;7.582;2022-11-25T01:26:19;13.87;;;4.30;;
21677;SDS011;11000;50.360;7.582;2022-11-25T01:28:40;14.60;;;4.30;;
21677;SDS011;11000;50.360;7.582;2022-11-25T01:31:02;12.00;;;3.97;;
21677;SDS011;11000;50.360;7.582;2022-11-25T01:33:25;14.07;;;5.10;;
21677;SDS011;11000;50.360;7.582;2022-11-25T01:35:45;15.00;;;4.10;;
21677;SDS011;11000;50.360;7.582;2022-11-25T01:38:06;11.03;;;4.50;;
21677;SDS011;11000;50.360;7.582;2022-11-25T01:40:26;9.47;;;3.60;;
21677;SDS011;11000;50.360;7.582;2022-11-25T01:42:47;13.80;;;4.03;;
21677;SDS011;11000;50.360;7.582;2022-11-25T01:47:52;14.10;;;4.20;;
21677;SDS011;11000;50.360;7.582;2022-11-25T01:50:17;11.77;;;4.33;;
21677;SDS011;11000;50.360;7.582;2022-11-25T01:52:41;16.00;;;3.77;;
21677;SDS011;11000;50.360;7.582;2022-11-25T01:57:27;8.97;;;4.47;;
21677;SDS011;11000;50.360;7.582;2022-11-25T01:59:52;12.43;;;4.00;;
21677;SDS011;11000;50.360;7.582;2022-11-25T02:02:16;14.53;;;4.40;;
21677;SDS011;11000;50.360;7.582;2022-11-25T02:04:39;14.97;;;4.33;;
21677;SDS011;11000;50.360;7.582;2022-11-25T02:07:03;16.57;;;4.93;;
21677;SDS011;11000;50.360;7.582;2022-11-25T02:09:28;16.50;;;5.00;;
21677;SDS011;11000;50.360;7.582;2022-11-25T02:11:49;13.23;;;3.87;;
21677;SDS011;11000;50.360;7.582;2022-11-25T02:14:11;12.97;;;3.97;;
21677;SDS011;11000;50.360;7.582;2022-11-25T02:16:33;10.67;;;4.53;;
21677;SDS011;11000;50.360;7.582;2022-11-25T02:18:54;14.00;;;3.70;;
21677;SDS011;11000;50.360;7.582;2022-11-25T02:21:19;19.60;;;4.20;;
21677;SDS011;11000;50.360;7.582;2022-11-25T02:23:59;14.93;;;4.20;;
21677;SDS011;11000;50.360;7.582;2022-11-25T02:26:35;15.47;;;4.23;;
21677;SDS011;11000;50.360;7.582;2022-11-25T02:28:57;9.70;;;3.90;;
21677;SDS011;11000;50.360;7.582;2022-11-25T02:31:21;13.70;;;4.23;;
21677;SDS011;11000;50.360;7.582;2022-11-25T02:33:42;11.23;;;4.07;;
21677;SDS011;11000;50.360;7.582;2022-11-25T02:36:21;11.80;;;3.40;;
21677;SDS011;11000;50.360;7.582;2022-11-25T02:41:26;13.43;;;4.00;;
21677;SDS011;11000;50.360;7.582;2022-11-25T02:43:51;10.47;;;3.90;;
21677;SDS011;11000;50.360;7.582;2022-11-25T02:46:13;15.13;;;3.60;;
21677;SDS011;11000;50.360;7.582;2022-11-25T02:48:36;10.27;;;3.80;;
21677;SDS011;11000;50.360;7.582;2022-11-25T02:50:58;11.63;;;3.53;;
21677;SDS011;11000;50.360;7.582;2022-11-25T02:53:19;11.30;;;4.23;;
21677;SDS011;11000;50.360;7.582;2022-11-25T02:55:40;9.57;;;4.40;;
21677;SDS011;11000;50.360;7.582;2022-11-25T02:58:01;9.37;;;3.43;;
21677;SDS011;11000;50.360;7.582;2022-11-25T03:00:22;15.20;;;3.90;;
21677;SDS011;11000;50.360;7.582;2022-11-25T03:02:43;11.63;;;4.20;;
21677;SDS011;11000;50.360;7.582;2022-11-25T03:05:03;12.33;;;3.70;;
21677;SDS011;11000;50.360;7.582;2022-11-25T03:07:24;9.73;;;3.63;;
21677;SDS011;11000;50.360;7.582;2022-11-25T03:09:44;15.97;;;4.00;;
21677;SDS011;11000;50.360;7.582;2022-11-25T03:12:05;13.20;;;4.20;;
21677;SDS011;11000;50.360;7.582;2022-11-25T03:14:38;11.90;;;3.83;;
21677;SDS011;11000;50.360;7.582;2022-11-25T03:16:58;10.80;;;3.90;;
21677;SDS011;11000;50.360;7.582;2022-11-25T03:19:19;9.67;;;3.83;;
21677;SDS011;11000;50.360;7.582;2022-11-25T03:21:39;11.87;;;3.90;;
21677;SDS011;11000;50.360;7.582;2022-11-25T03:24:00;11.07;;;4.00;;
21677;SDS011;11000;50.360;7.582;2022-11-25T03:26:20;9.60;;;3.70;;
21677;SDS011;11000;50.360;7.582;2022-11-25T03:28:41;14.80;;;4.37;;
21677;SDS011;11000;50.360;7.582;2022-11-25T03:31:01;10.73;;;3.80;;
21677;SDS011;11000;50.360;7.582;2022-11-25T03:33:22;13.10;;;3.57;;
21677;SDS011;11000;50.360;7.582;2022-11-25T03:35:42;11.37;;;3.40;;
21677;SDS011;11000;50.360;7.582;2022-11-25T03:38:03;12.70;;;4.47;;
21677;SDS011;11000;50.360;7.582;2022-11-25T03:40:23;13.77;;;4.30;;
21677;SDS011;11000;50.360;7.582;2022-11-25T03:42:44;10.37;;;3.40;;
21677;SDS011;11000;50.360;7.582;2022-11-25T03:45:05;10.60;;;3.70;;
21677;SDS011;11000;50.360;7.582;2022-11-25T03:47:26;15.90;;;3.50;;
21677;SDS011;11000;50.360;7.582;2022-11-25T03:49:47;16.73;;;3.80;;
21677;SDS011;11000;50.360;7.582;2022-11-25T03:52:07;7.47;;;3.43;;
21677;SDS011;11000;50.360;7.582;2022-11-25T03:54:28;11.47;;;3.53;;
21677;SDS011;11000;50.360;7.582;2022-11-25T03:56:48;13.07;;;3.73;;
21677;SDS011;11000;50.360;7.582;2022-11-25T03:59:09;11.67;;;4.00;;
21677;SDS011;11000;50.360;7.582;2022-11-25T04:01:29;13.73;;;3.83;;
21677;SDS011;11000;50.360;7.582;2022-11-25T04:03:50;9.53;;;3.10;;
21677;SDS011;11000;50.360;7.582;2022-11-25T04:06:10;8.90;;;3.10;;
21677;SDS011;11000;50.360;7.582;2022-11-25T04:08:31;9.40;;;3.47;;
21677;SDS011;11000;50.360;7.582;2022-11-25T04:10:52;12.77;;;3.50;;
21677;SDS011;11000;50.360;7.582;2022-11-25T04:13:12;11.13;;;3.63;;
21677;SDS011;11000;50.360;7.582;2022-11-25T04:15:33;10.80;;;3.37;;
21677;SDS011;11000;50.360;7.582;2022-11-25T04:17:53;13.07;;;3.87;;
21677;SDS011;11000;50.360;7.582;2022-11-25T04:20:14;14.83;;;3.63;;
21677;SDS011;11000;50.360;7.582;2022-11-25T04:22:35;7.03;;;3.00;;
21677;SDS011;11000;50.360;7.582;2022-11-25T04:24:55;10.10;;;3.57;;
21677;SDS011;11000;50.360;7.582;2022-11-25T04:27:16;9.47;;;3.43;;
21677;SDS011;11000;50.360;7.582;2022-11-25T04:29:36;15.17;;;3.93;;
21677;SDS011;11000;50.360;7.582;2022-11-25T04:31:57;8.80;;;3.47;;
21677;SDS011;11000;50.360;7.582;2022-11-25T04:34:17;17.77;;;3.43;;
21677;SDS011;11000;50.360;7.582;2022-11-25T04:36:38;12.73;;;3.83;;
21677;SDS011;11000;50.360;7.582;2022-11-25T04:38:58;11.50;;;3.60;;
21677;SDS011;11000;50.360;7.582;2022-11-25T04:41:19;14.50;;;3.90;;
21677;SDS011;11000;50.360;7.582;2022-11-25T04:43:40;8.00;;;3.57;;
21677;SDS011;11000;50.360;7.582;2022-11-25T04:46:01;13.37;;;3.60;;
21677;SDS011;11000;50.360;7.582;2022-11-25T04:48:22;11.63;;;3.80;;
21677;SDS011;11000;50.360;7.582;2022-11-25T04:50:42;10.77;;;3.40;;
21677;SDS011;11000;50.360;7.582;2022-11-25T04:53:03;13.80;;;3.67;;
21677;SDS011;11000;50.360;7.582;2022-11-25T04:55:24;14.30;;;3.80;;
21677;SDS011;11000;50.360;7.582;2022-11-25T04:57:44;12.70;;;3.30;;
21677;SDS011;11000;50.360;7.582;2022-11-25T05:00:05;11.97;;;4.07;;
21677;SDS011;11000;50.360;7.582;2022-11-25T05:02:27;11.10;;;3.83;;
21677;SDS011;11000;50.360;7.582;2022-11-25T05:04:48;8.77;;;3.73;;
21677;SDS011;11000;50.360;7.582;2022-11-25T05:07:12;11.37;;;3.23;;
21677;SDS011;11000;50.360;7.582;2022-11-25T05:09:33;8.33;;;3.17;;
21677;SDS011;11000;50.360;7.582;2022-11-25T05:11:54;7.77;;;3.23;;
21677;SDS011;11000;50.360;7.582;2022-11-25T05:14:14;12.93;;;3.93;;
21677;SDS011;11000;50.360;7.582;2022-11-25T05:16:34;11.70;;;3.00;;
21677;SDS011;11000;50.360;7.582;2022-11-25T05:18:55;14.77;;;3.60;;
21677;SDS011;11000;50.360;7.582;2022-11-25T05:21:15;10.67;;;3.60;;
21677;SDS011;11000;50.360;7.582;2022-11-25T05:23:36;9.30;;;3.17;;
21677;SDS011;11000;50.360;7.582;2022-11-25T05:26:00;13.83;;;3.30;;
21677;SDS011;11000;50.360;7.582;2022-11-25T05:28:21;8.17;;;3.00;;
21677;SDS011;11000;50.360;7.582;2022-11-25T05:30:42;11.33;;;3.53;;
21677;SDS011;11000;50.360;7.582;2022-11-25T05:33:04;12.80;;;3.20;;
21677;SDS011;11000;50.360;7.582;2022-11-25T05:35:24;15.40;;;3.93;;
21677;SDS011;11000;50.360;7.582;2022-11-25T05:37:45;12.03;;;3.33;;
21677;SDS011;11000;50.360;7.582;2022-11-25T05:40:05;9.40;;;3.30;;
21677;SDS011;11000;50.360;7.582;2022-11-25T05:42:27;11.90;;;3.37;;
21677;SDS011;11000;50.360;7.582;2022-11-25T05:44:48;11.17;;;3.27;;
21677;SDS011;11000;50.360;7.582;2022-11-25T05:47:09;11.13;;;3.53;;
21677;SDS011;11000;50.360;7.582;2022-11-25T05:49:29;6.90;;;3.03;;
21677;SDS011;11000;50.360;7.582;2022-11-25T05:51:50;11.13;;;3.10;;
21677;SDS011;11000;50.360;7.582;2022-11-25T05:54:10;14.53;;;4.07;;
21677;SDS011;11000;50.360;7.582;2022-11-25T05:56:31;13.37;;;3.47;;
21677;SDS011;11000;50.360;7.582;2022-11-25T05:58:52;11.93;;;3.73;;
21677;SDS011;11000;50.360;7.582;2022-11-25T06:01:14;16.80;;;3.90;;
21677;SDS011;11000;50.360;7.582;2022-11-25T06:03:36;12.37;;;3.30;;
21677;SDS011;11000;50.360;7.582;2022-11-25T06:05:57;10.90;;;2.87;;
21677;SDS011;11000;50.360;7.582;2022-11-25T06:08:18;7.33;;;3.00;;
21677;SDS011;11000;50.360;7.582;2022-11-25T06:10:39;8.50;;;3.20;;
21677;SDS011;11000;50.360;7.582;2022-11-25T06:13:00;11.33;;;3.20;;
21677;SDS011;11000;50.360;7.582;2022-11-25T06:15:20;9.73;;;2.97;;
21677;SDS011;11000;50.360;7.582;2022-11-25T06:17:41;10.40;;;4.20;;
21677;SDS011;11000;50.360;7.582;2022-11-25T06:20:01;16.43;;;3.83;;
21677;SDS011;11000;50.360;7.582;2022-11-25T06:22:23;14.77;;;3.83;;
21677;SDS011;11000;50.360;7.582;2022-11-25T06:24:44;7.83;;;2.90;;
21677;SDS011;11000;50.360;7.582;2022-11-25T06:27:04;7.77;;;3.60;;
21677;SDS011;11000;50.360;7.582;2022-11-25T06:29:25;9.17;;;3.23;;
21677;SDS011;11000;50.360;7.582;2022-11-25T06:31:47;9.97;;;3.67;;
21677;SDS011;11000;50.360;7.582;2022-11-25T06:34:08;12.63;;;3.80;;
21677;SDS011;11000;50.360;7.582;2022-11-25T06:36:28;11.23;;;3.70;;
21677;SDS011;11000;50.360;7.582;2022-11-25T06:38:50;10.73;;;3.83;;
21677;SDS011;11000;50.360;7.582;2022-11-25T06:41:12;11.43;;;4.50;;
21677;SDS011;11000;50.360;7.582;2022-11-25T06:43:32;13.37;;;3.80;;
21677;SDS011;11000;50.360;7.582;2022-11-25T06:45:53;12.80;;;4.50;;
21677;SDS011;11000;50.360;7.582;2022-11-25T06:48:13;12.63;;;4.13;;
21677;SDS011;11000;50.360;7.582;2022-11-25T06:50:34;21.97;;;5.37;;
21677;SDS011;11000;50.360;7.582;2022-11-25T06:52:54;10.00;;;3.57;;
21677;SDS011;11000;50.360;7.582;2022-11-25T06:55:15;13.17;;;3.37;;
21677;SDS011;11000;50.360;7.582;2022-11-25T06:57:36;8.77;;;3.07;;
21677;SDS011;11000;50.360;7.582;2022-11-25T06:59:56;7.83;;;3.07;;
21677;SDS011;11000;50.360;7.582;2022-11-25T07:02:17;10.50;;;3.40;;
21677;SDS011;11000;50.360;7.582;2022-11-25T07:04:38;12.90;;;3.10;;
21677;SDS011;11000;50.360;7.582;2022-11-25T07:06:59;10.83;;;3.00;;
21677;SDS011;11000;50.360;7.582;2022-11-25T07:09:19;10.13;;;3.60;;
21677;SDS011;11000;50.360;7.582;2022-11-25T07:11:41;11.60;;;3.43;;
21677;SDS011;11000;50.360;7.582;2022-11-25T07:14:03;7.03;;;3.20;;
21677;SDS011;11000;50.360;7.582;2022-11-25T07:16:26;12.80;;;3.77;;
21677;SDS011;11000;50.360;7.582;2022-11-25T07:18:47;11.43;;;3.47;;
21677;SDS011;11000;50.360;7.582;2022-11-25T07:21:13;16.13;;;3.57;;
21677;SDS011;11000;50.360;7.582;2022-11-25T07:23:35;9.17;;;3.67;;
21677;SDS011;11000;50.360;7.582;2022-11-25T07:26:00;12.90;;;3.30;;
21677;SDS011;11000;50.360;7.582;2022-11-25T07:28:22;11.83;;;3.10;;
21677;SDS011;11000;50.360;7.582;2022-11-25T07:30:43;8.33;;;3.27;;
21677;SDS011;11000;50.360;7.582;2022-11-25T07:33:03;9.83;;;3.60;;
21677;SDS011;11000;50.360;7.582;2022-11-25T07:35:24;14.57;;;3.33;;
21677;SDS011;11000;50.360;7.582;2022-11-25T07:37:44;11.00;;;3.50;;
21677;SDS011;11000;50.360;7.582;2022-11-25T07:40:05;10.13;;;3.10;;
21677;SDS011;11000;50.360;7.582;2022-11-25T07:42:26;8.70;;;3.33;;
21677;SDS011;11000;50.360;7.582;2022-11-25T07:44:47;10.77;;;3.70;;
21677;SDS011;11000;50.360;7.582;2022-11-25T07:47:08;10.40;;;4.57;;
21677;SDS011;11000;50.360;7.582;2022-11-25T07:49:29;13.23;;;3.93;;
21677;SDS011;11000;50.360;7.582;2022-11-25T07:51:50;12.47;;;3.70;;
21677;SDS011;11000;50.360;7.582;2022-11-25T07:54:16;10.97;;;3.67;;
21677;SDS011;11000;50.360;7.582;2022-11-25T07:56:38;7.53;;;3.33;;
21677;SDS011;11000;50.360;7.582;2022-11-25T07:58:59;13.03;;;3.47;;
21677;SDS011;11000;50.360;7.582;2022-11-25T08:01:20;12.87;;;4.00;;
21677;SDS011;11000;50.360;7.582;2022-11-25T08:03:41;10.13;;;3.70;;
21677;SDS011;11000;50.360;7.582;2022-11-25T08:06:03;9.07;;;3.13;;
21677;SDS011;11000;50.360;7.582;2022-11-25T08:08:26;13.33;;;3.93;;
21677;SDS011;11000;50.360;7.582;2022-11-25T08:10:46;9.07;;;3.50;;
21677;SDS011;11000;50.360;7.582;2022-11-25T08:13:06;12.20;;;4.67;;
21677;SDS011;11000;50.360;7.582;2022-11-25T08:15:27;14.60;;;4.83;;
21677;SDS011;11000;50.360;7.582;2022-11-25T08:17:48;11.80;;;3.90;;
21677;SDS011;11000;50.360;7.582;2022-11-25T08:20:11;11.93;;;3.43;;
21677;SDS011;11000;50.360;7.582;2022-11-25T08:22:32;13.00;;;3.53;;
21677;SDS011;11000;50.360;7.582;2022-11-25T08:24:52;8.57;;;3.13;;
21677;SDS011;11000;50.360;7.582;2022-11-25T08:27:13;9.53;;;3.37;;
21677;SDS011;11000;50.360;7.582;2022-11-25T08:29:33;7.07;;;3.23;;
21677;SDS011;11000;50.360;7.582;2022-11-25T08:31:54;8.90;;;3.70;;
21677;SDS011;11000;50.360;7.582;2022-11-25T08:34:18;10.60;;;3.30;;
21677;SDS011;11000;50.360;7.582;2022-11-25T08:36:40;11.10;;;3.93;;
21677;SDS011;11000;50.360;7.582;2022-11-25T08:39:03;7.23;;;3.93;;
21677;SDS011;11000;50.360;7.582;2022-11-25T08:41:27;12.97;;;3.47;;
21677;SDS011;11000;50.360;7.582;2022-11-25T08:43:52;14.50;;;4.07;;
21677;SDS011;11000;50.360;7.582;2022-11-25T08:46:14;13.50;;;4.10;;
21677;SDS011;11000;50.360;7.582;2022-11-25T08:48:36;12.17;;;3.47;;
21677;SDS011;11000;50.360;7.582;2022-11-25T08:50:57;10.00;;;3.43;;
21677;SDS011;11000;50.360;7.582;2022-11-25T08:53:18;12.50;;;3.70;;
21677;SDS011;11000;50.360;7.582;2022-11-25T08:55:40;7.90;;;3.40;;
21677;SDS011;11000;50.360;7.582;2022-11-25T08:58:01;10.70;;;3.73;;
21677;SDS011;11000;50.360;7.582;2022-11-25T09:00:22;10.90;;;3.47;;
21677;SDS011;11000;50.360;7.582;2022-11-25T09:02:42;8.67;;;4.20;;
21677;SDS011;11000;50.360;7.582;2022-11-25T09:05:03;9.47;;;4.00;;
21677;SDS011;11000;50.360;7.582;2022-11-25T09:07:24;13.53;;;4.00;;
21677;SDS011;11000;50.360;7.582;2022-11-25T09:09:44;9.93;;;3.90;;
21677;SDS011;11000;50.360;7.582;2022-11-25T09:12:05;12.80;;;4.10;;
21677;SDS011;11000;50.360;7.582;2022-11-25T09:14:25;13.07;;;3.90;;
21677;SDS011;11000;50.360;7.582;2022-11-25T09:16:46;12.13;;;3.70;;
21677;SDS011;11000;50.360;7.582;2022-11-25T09:19:06;13.70;;;3.73;;
21677;SDS011;11000;50.360;7.582;2022-11-25T09:21:27;10.53;;;3.60;;
21677;SDS011;11000;50.360;7.582;2022-11-25T09:23:48;8.93;;;4.10;;
21677;SDS011;11000;50.360;7.582;2022-11-25T09:26:16;9.90;;;3.90;;
21677;SDS011;11000;50.360;7.582;2022-11-25T09:28:48;6.40;;;3.13;;
21677;SDS011;11000;50.360;7.582;2022-11-25T09:31:09;5.07;;;3.03;;
21677;SDS011;11000;50.360;7.582;2022-11-25T09:33:30;9.13;;;2.90;;
21677;SDS011;11000;50.360;7.582;2022-11-25T09:35:50;8.37;;;2.57;;
21677;SDS011;11000;50.360;7.582;2022-11-25T09:38:11;7.97;;;2.70;;
21677;SDS011;11000;50.360;7.582;2022-11-25T09:40:49;7.70;;;2.80;;
21677;SDS011;11000;50.360;7.582;2022-11-25T09:54:35;7.17;;;2.47;;
21677;SDS011;11000;50.360;7.582;2022-11-25T09:59:34;5.03;;;2.40;;
21677;SDS011;11000;50.360;7.582;2022-11-25T10:02:01;6.97;;;2.57;;
21677;SDS011;11000;50.360;7.582;2022-11-25T10:04:32;6.97;;;2.37;;
21677;SDS011;11000;50.360;7.582;2022-11-25T10:06:57;7.40;;;2.30;;
21677;SDS011;11000;50.360;7.582;2022-11-25T10:09:22;7.00;;;2.57;;
21677;SDS011;11000;50.360;7.582;2022-11-25T10:16:51;5.37;;;2.40;;
21677;SDS011;11000;50.360;7.582;2022-11-25T10:19:35;10.53;;;3.00;;
21677;SDS011;11000;50.360;7.582;2022-11-25T10:22:34;7.60;;;1.97;;
21677;SDS011;11000;50.360;7.582;2022-11-25T10:24:50;9.43;;;2.37;;
21677;SDS011;11000;50.360;7.582;2022-11-25T10:27:14;5.83;;;2.23;;
21677;SDS011;11000;50.360;7.582;2022-11-25T10:29:41;7.20;;;2.33;;
21677;SDS011;11000;50.360;7.582;2022-11-25T10:32:10;7.97;;;2.37;;
21677;SDS011;11000;50.360;7.582;2022-11-25T10:34:40;8.03;;;2.60;;
21677;SDS011;11000;50.360;7.582;2022-11-25T10:37:09;4.17;;;2.27;;
21677;SDS011;11000;50.360;7.582;2022-11-25T10:39:36;7.40;;;2.40;;
21677;SDS011;11000;50.360;7.582;2022-11-25T10:41:58;6.63;;;2.00;;
21677;SDS011;11000;50.360;7.582;2022-11-25T10:44:45;6.10;;;2.27;;
21677;SDS011;11000;50.360;7.582;2022-11-25T10:52:36;7.70;;;2.03;;
21677;SDS011;11000;50.360;7.582;2022-11-25T10:55:14;6.57;;;1.93;;
21677;SDS011;11000;50.360;7.582;2022-11-25T10:57:40;7.10;;;1.73;;
21677;SDS011;11000;50.360;7.582;2022-11-25T11:00:01;10.87;;;2.60;;
21677;SDS011;11000;50.360;7.582;2022-11-25T11:02:24;6.63;;;2.13;;
21677;SDS011;11000;50.360;7.582;2022-11-25T11:04:58;6.60;;;1.73;;
21677;SDS011;11000;50.360;7.582;2022-11-25T11:07:32;7.03;;;1.93;;
21677;SDS011;11000;50.360;7.582;2022-11-25T11:10:03;6.43;;;1.73;;
21677;SDS011;11000;50.360;7.582;2022-11-25T11:12:36;7.90;;;2.03;;
21677;SDS011;11000;50.360;7.582;2022-11-25T11:15:13;5.87;;;1.80;;
21677;SDS011;11000;50.360;7.582;2022-11-25T11:17:37;8.77;;;2.40;;
21677;SDS011;11000;50.360;7.582;2022-11-25T11:20:03;8.80;;;2.67;;
21677;SDS011;11000;50.360;7.582;2022-11-25T11:22:35;8.80;;;2.13;;
21677;SDS011;11000;50.360;7.582;2022-11-25T11:25:04;4.97;;;1.80;;
21677;SDS011;11000;50.360;7.582;2022-11-25T11:27:42;4.40;;;2.30;;
21677;SDS011;11000;50.360;7.582;2022-11-25T11:30:15;8.43;;;2.20;;
21677;SDS011;11000;50.360;7.582;2022-11-25T11:32:43;8.60;;;2.50;;
21677;SDS011;11000;50.360;7.582;2022-11-25T11:35:07;8.93;;;2.40;;
21677;SDS011;11000;50.360;7.582;2022-11-25T11:37:56;4.60;;;1.90;;
21677;SDS011;11000;50.360;7.582;2022-11-25T11:42:59;4.10;;;1.60;;
21677;SDS011;11000;50.360;7.582;2022-11-25T11:50:32;6.73;;;1.97;;
21677;SDS011;11000;50.360;7.582;2022-11-25T11:53:10;4.13;;;1.77;;
21677;SDS011;11000;50.360;7.582;2022-11-25T11:55:55;4.63;;;1.80;;
21677;SDS011;11000;50.360;7.582;2022-11-25T12:03:59;9.33;;;2.20;;
21677;SDS011;11000;50.360;7.582;2022-11-25T12:06:39;3.73;;;1.60;;
21677;SDS011;11000;50.360;7.582;2022-11-25T12:09:07;6.43;;;1.77;;
21677;SDS011;11000;50.360;7.582;2022-11-25T12:11:34;7.63;;;2.20;;
21677;SDS011;11000;50.360;7.582;2022-11-25T12:14:08;5.87;;;1.93;;
21677;SDS011;11000;50.360;7.582;2022-11-25T12:16:39;6.83;;;1.90;;
21677;SDS011;11000;50.360;7.582;2022-11-25T12:19:09;6.03;;;1.83;;
21677;SDS011;11000;50.360;7.582;2022-11-25T12:21:55;5.47;;;1.43;;
21677;SDS011;11000;50.360;7.582;2022-11-25T12:24:37;5.27;;;1.70;;
21677;SDS011;11000;50.360;7.582;2022-11-25T12:27:26;7.20;;;1.73;;
21677;SDS011;11000;50.360;7.582;2022-11-25T12:30:11;4.60;;;1.50;;
21677;SDS011;11000;50.360;7.582;2022-11-25T12:35:27;3.77;;;1.90;;
21677;SDS011;11000;50.360;7.582;2022-11-25T12:46:18;8.07;;;1.93;;
21677;SDS011;11000;50.360;7.582;2022-11-25T12:48:41;9.60;;;2.50;;
21677;SDS011;11000;50.360;7.582;2022-11-25T12:51:09;6.33;;;1.60;;
21677;SDS011;11000;50.360;7.582;2022-11-25T12:56:10;7.37;;;1.57;;
21677;SDS011;11000;50.360;7.582;2022-11-25T13:06:37;7.97;;;2.33;;
21677;SDS011;11000;50.360;7.582;2022-11-25T13:17:33;11.43;;;1.83;;
21677;SDS011;11000;50.360;7.582;2022-11-25T13:22:44;8.93;;;1.80;;
21677;SDS011;11000;50.360;7.582;2022-11-25T13:25:29;8.63;;;1.93;;
21677;SDS011;11000;50.360;7.582;2022-11-25T13:32:53;6.63;;;1.60;;
21677;SDS011;11000;50.360;7.582;2022-11-25T13:37:41;10.67;;;2.20;;
21677;SDS011;11000;50.360;7.582;2022-11-25T13:42:42;6.43;;;2.07;;
21677;SDS011;11000;50.360;7.582;2022-11-25T13:45:03;11.30;;;2.10;;
21677;SDS011;11000;50.360;7.582;2022-11-25T13:47:45;8.23;;;1.90;;
21677;SDS011;11000;50.360;7.582;2022-11-25T13:52:45;9.93;;;1.87;;
21677;SDS011;11000;50.360;7.582;2022-11-25T13:57:36;6.77;;;2.47;;
21677;SDS011;11000;50.360;7.582;2022-11-25T14:02:35;7.10;;;2.10;;
21677;SDS011;11000;50.360;7.582;2022-11-25T14:05:06;8.80;;;1.80;;
21677;SDS011;11000;50.360;7.582;2022-11-25T14:13:17;8.83;;;1.80;;
21677;SDS011;11000;50.360;7.582;2022-11-25T14:16:07;9.30;;;2.10;;
21677;SDS011;11000;50.360;7.582;2022-11-25T14:18:55;7.40;;;1.70;;
21677;SDS011;11000;50.360;7.582;2022-11-25T14:21:51;8.33;;;1.90;;
21677;SDS011;11000;50.360;7.582;2022-11-25T14:24:40;9.07;;;1.90;;
21677;SDS011;11000;50.360;7.582;2022-11-25T14:27:01;9.40;;;2.30;;
21677;SDS011;11000;50.360;7.582;2022-11-25T14:29:37;7.47;;;2.07;;
21677;SDS011;11000;50.360;7.582;2022-11-25T14:32:12;8.63;;;2.17;;
21677;SDS011;11000;50.360;7.582;2022-11-25T14:34:41;6.93;;;2.20;;
21677;SDS011;11000;50.360;7.582;2022-11-25T14:37:12;6.07;;;2.13;;
21677;SDS011;11000;50.360;7.582;2022-11-25T14:39:38;10.53;;;2.13;;
21677;SDS011;11000;50.360;7.582;2022-11-25T14:42:09;9.43;;;2.60;;
21677;SDS011;11000;50.360;7.582;2022-11-25T14:44:35;10.80;;;2.20;;
21677;SDS011;11000;50.360;7.582;2022-11-25T14:47:04;9.63;;;2.10;;
21677;SDS011;11000;50.360;7.582;2022-11-25T14:49:39;6.87;;;1.90;;
21677;SDS011;11000;50.360;7.582;2022-11-25T14:52:04;6.13;;;1.80;;
21677;SDS011;11000;50.360;7.582;2022-11-25T14:54:25;10.47;;;2.00;;
21677;SDS011;11000;50.360;7.582;2022-11-25T14:56:45;9.13;;;2.77;;
21677;SDS011;11000;50.360;7.582;2022-11-25T14:59:07;9.43;;;2.03;;
21677;SDS011;11000;50.360;7.582;2022-11-25T15:01:30;8.37;;;2.27;;
21677;SDS011;11000;50.360;7.582;2022-11-25T15:06:32;17.40;;;2.80;;
21677;SDS011;11000;50.360;7.582;2022-11-25T15:08:55;9.17;;;2.43;;
21677;SDS011;11000;50.360;7.582;2022-11-25T15:11:18;4.87;;;1.93;;
21677;SDS011;11000;50.360;7.582;2022-11-25T15:13:42;5.60;;;2.03;;
21677;SDS011;11000;50.360;7.582;2022-11-25T15:16:14;9.73;;;1.90;;
21677;SDS011;11000;50.360;7.582;2022-11-25T15:18:46;8.30;;;2.20;;
21677;SDS011;11000;50.360;7.582;2022-11-25T15:21:15;6.90;;;2.40;;
21677;SDS011;11000;50.360;7.582;2022-11-25T15:23:39;8.20;;;2.60;;
21677;SDS011;11000;50.360;7.582;2022-11-25T15:26:00;11.27;;;2.57;;
21677;SDS011;11000;50.360;7.582;2022-11-25T15:28:22;8.37;;;2.23;;
21677;SDS011;11000;50.360;7.582;2022-11-25T15:30:42;7.10;;;2.47;;
21677;SDS011;11000;50.360;7.582;2022-11-25T15:33:14;9.87;;;2.40;;
21677;SDS011;11000;50.360;7.582;2022-11-25T15:35:35;12.20;;;2.87;;
21677;SDS011;11000;50.360;7.582;2022-11-25T15:37:55;8.53;;;2.90;;
21677;SDS011;11000;50.360;7.582;2022-11-25T15:40:32;9.47;;;2.80;;
21677;SDS011;11000;50.360;7.582;2022-11-25T15:42:59;10.00;;;2.53;;
21677;SDS011;11000;50.360;7.582;2022-11-25T15:45:21;10.07;;;2.83;;
21677;SDS011;11000;50.360;7.582;2022-11-25T15:47:43;15.90;;;3.80;;
21677;SDS011;11000;50.360;7.582;2022-11-25T15:50:04;8.93;;;2.50;;
21677;SDS011;11000;50.360;7.582;2022-11-25T15:52:39;7.30;;;2.77;;
21677;SDS011;11000;50.360;7.582;2022-11-25T15:55:04;10.07;;;2.60;;
21677;SDS011;11000;50.360;7.582;2022-11-25T15:57:28;12.67;;;3.43;;
21677;SDS011;11000;50.360;7.582;2022-11-25T16:02:28;9.03;;;2.87;;
21677;SDS011;11000;50.360;7.582;2022-11-25T16:07:34;11.20;;;2.50;;
21677;SDS011;11000;50.360;7.582;2022-11-25T16:09:55;19.57;;;3.40;;
21677;SDS011;11000;50.360;7.582;2022-11-25T16:12:16;6.10;;;2.27;;